Terminal Aerodrome Forecast
Issued by NWS

Home | Current Version | Previous Version | Text Only | Print | Product List | Glossary On
Versions: 1 2 3 4 5 6 7 8 9 10 11 12 13 14 15 16 17 18 19 20 21 22 23 24 25
000
FTUS44 KFWD 060907 AAB
TAFGKY
TAF AMD
KGKY 060907Z 0609/0706 19018KT P6SM SCT020 BKN300
      TEMPO 0610/0614 BKN020
     FM061400 19019KT P6SM BKN022
     FM061600 18022KT P6SM SCT040
     FM070100 18018KT P6SM SCT060=

USA.gov is the U.S. government's official web portal to all federal, state and local government web resources and services.